createdAt,value
2018-03-27T00:00:00.909Z,8.45
2018-03-27T00:01:00.674Z,8.45
2018-03-27T00:02:00.356Z,8.45
2018-03-27T00:03:00.370Z,8.44
2018-03-27T00:04:00.660Z,8.45
2018-03-27T00:05:00.969Z,8.48
2018-03-27T00:06:00.972Z,8.42
2018-03-27T00:07:00.707Z,8.46
2018-03-27T00:08:01.000Z,8.44
2018-03-27T00:09:01.007Z,8.34
2018-03-27T00:10:01.033Z,8.44
2018-03-27T00:11:00.753Z,8.33
2018-03-27T00:12:00.773Z,8.37
2018-03-27T00:13:01.068Z,8.36
2018-03-27T00:14:00.792Z,8.28
2018-03-27T00:15:00.805Z,8.37
2018-03-27T00:16:00.820Z,8.41
2018-03-27T00:17:00.836Z,8.36
2018-03-27T00:18:00.847Z,8.38
2018-03-27T00:19:00.571Z,8.31
2018-03-27T00:20:00.873Z,8.36
2018-03-27T00:21:00.931Z,8.37
2018-03-27T00:22:01.180Z,8.33
2018-03-27T00:23:00.924Z,8.34
2018-03-27T00:24:01.207Z,8.36
2018-03-27T00:25:00.934Z,8.27
2018-03-27T00:26:00.950Z,8.31
2018-03-27T00:27:01.240Z,8.34
2018-03-27T00:28:01.269Z,8.2
2018-03-27T00:29:01.266Z,8.19
2018-03-27T00:30:01.281Z,8.28
2018-03-27T00:31:01.010Z,8.27
2018-03-27T00:32:01.307Z,8.24
2018-03-27T00:33:01.321Z,8.18
2018-03-27T00:34:01.050Z,8.23
2018-03-27T00:35:01.056Z,8.23
2018-03-27T00:36:01.075Z,8.26
2018-03-27T00:37:01.132Z,8.18
2018-03-27T00:38:01.385Z,8.23
2018-03-27T00:39:01.397Z,8.27
2018-03-27T00:40:01.122Z,8.16
2018-03-27T00:41:01.183Z,8.18
2018-03-27T00:42:01.436Z,8.16
2018-03-27T00:43:00.878Z,8.18
2018-03-27T00:44:01.468Z,8.18
2018-03-27T00:45:01.473Z,8.18
2018-03-27T00:46:01.477Z,8.19
2018-03-27T00:47:01.491Z,8.18
2018-03-27T00:48:01.506Z,8.09
2018-03-27T00:49:01.521Z,8.15
2018-03-27T00:50:01.257Z,8.15
2018-03-27T00:51:01.543Z,8.12
2018-03-27T00:52:01.286Z,8.05
2018-03-27T00:53:01.570Z,8.13
2018-03-27T00:54:01.301Z,8.2
2018-03-27T00:55:01.330Z,8.09
2018-03-27T00:56:01.041Z,8.12
2018-03-27T00:57:01.631Z,8.09
2018-03-27T00:58:01.633Z,8.06
2018-03-27T00:59:01.650Z,8.1
2018-03-27T01:00:01.376Z,8.08
2018-03-27T01:01:01.386Z,8.09
2018-03-27T01:02:01.398Z,8.08
2018-03-27T01:03:01.696Z,8.08
2018-03-27T01:04:01.428Z,8.06
2018-03-27T01:05:01.727Z,8.12
2018-03-27T01:06:01.448Z,8.09
2018-03-27T01:07:01.459Z,8.13
2018-03-27T01:08:01.195Z,8.13
2018-03-27T01:09:01.206Z,8.1
2018-03-27T01:10:01.785Z,8.13
2018-03-27T01:11:01.795Z,8.06
2018-03-27T01:12:01.530Z,8.06
2018-03-27T01:13:01.252Z,8
2018-03-27T01:14:01.549Z,8.08
2018-03-27T01:15:01.852Z,8.03
2018-03-27T01:16:01.864Z,8.01
2018-03-27T01:17:01.876Z,8.03
2018-03-27T01:18:01.883Z,8.03
2018-03-27T01:19:01.615Z,7.95
2018-03-27T01:20:01.629Z,8.06
2018-03-27T01:21:01.640Z,8.1
2018-03-27T01:22:01.928Z,7.95
2018-03-27T01:23:01.662Z,8.05
2018-03-27T01:24:01.691Z,7.98
2018-03-27T01:25:01.404Z,8.03
2018-03-27T01:26:01.705Z,8
2018-03-27T01:27:01.739Z,8.08
2018-03-27T01:28:01.726Z,8.03
2018-03-27T01:29:02.026Z,7.95
2018-03-27T01:30:01.762Z,8.08
2018-03-27T01:31:02.043Z,7.97
2018-03-27T01:32:02.071Z,8.01
2018-03-27T01:33:02.081Z,8.03
2018-03-27T01:34:01.800Z,8.01
2018-03-27T01:35:02.101Z,7.94
2018-03-27T01:36:01.832Z,7.95
2018-03-27T01:37:01.835Z,7.94
2018-03-27T01:38:01.856Z,7.98
2018-03-27T01:39:02.147Z,7.88
2018-03-27T01:40:01.874Z,7.93
2018-03-27T01:41:02.173Z,8.03
2018-03-27T01:42:01.905Z,7.91
2018-03-27T01:43:01.914Z,7.94
2018-03-27T01:44:01.923Z,7.83
2018-03-27T01:45:02.223Z,7.93
2018-03-27T01:46:02.229Z,7.9
2018-03-27T01:47:01.961Z,7.95
2018-03-27T01:48:01.979Z,7.83
2018-03-27T01:49:02.274Z,7.93
2018-03-27T01:50:02.284Z,7.85
2018-03-27T01:51:01.728Z,7.85
2018-03-27T01:52:02.025Z,7.85
2018-03-27T01:53:02.324Z,7.76
2018-03-27T01:54:02.346Z,7.83
2018-03-27T01:55:01.780Z,7.79
2018-03-27T01:56:02.362Z,7.79
2018-03-27T01:57:02.371Z,7.83
2018-03-27T01:58:02.383Z,7.82
2018-03-27T01:59:02.400Z,7.79
2018-03-27T02:00:01.840Z,7.79
2018-03-27T02:01:02.135Z,7.77
2018-03-27T02:02:02.155Z,7.82
2018-03-27T02:03:02.181Z,7.76
2018-03-27T02:04:02.456Z,7.73
2018-03-27T02:05:02.185Z,7.72
2018-03-27T02:06:02.486Z,7.67
2018-03-27T02:07:02.657Z,7.69
2018-03-27T02:08:02.227Z,7.72
2018-03-27T02:09:02.235Z,7.7
2018-03-27T02:10:02.248Z,7.73
2018-03-27T02:11:02.285Z,7.72
2018-03-27T02:12:02.276Z,7.75
2018-03-27T02:13:02.571Z,7.69
2018-03-27T02:14:02.303Z,7.73
2018-03-27T02:15:02.594Z,7.72
2018-03-27T02:16:02.704Z,7.73
2018-03-27T02:17:02.616Z,7.69
2018-03-27T02:18:02.346Z,7.73
2018-03-27T02:19:02.645Z,7.73
2018-03-27T02:20:02.667Z,7.57
2018-03-27T02:21:02.670Z,7.69
2018-03-27T02:22:02.842Z,7.72
2018-03-27T02:23:02.695Z,7.73
2018-03-27T02:24:02.708Z,7.57
2018-03-27T02:25:02.709Z,7.61
2018-03-27T02:26:02.158Z,7.61
2018-03-27T02:27:02.455Z,7.69
2018-03-27T02:28:02.194Z,7.6
2018-03-27T02:29:02.763Z,7.72
2018-03-27T02:30:02.776Z,7.67
2018-03-27T02:31:02.510Z,7.66
2018-03-27T02:32:02.284Z,7.66
2018-03-27T02:33:02.877Z,7.72
2018-03-27T02:34:02.844Z,7.57
2018-03-27T02:35:02.881Z,7.7
2018-03-27T02:36:02.565Z,7.6
2018-03-27T02:37:02.867Z,7.57
2018-03-27T02:38:02.883Z,7.63
2018-03-27T02:39:02.609Z,7.7
2018-03-27T02:40:02.615Z,7.72
2018-03-27T02:41:02.921Z,7.69
2018-03-27T02:42:02.938Z,7.73
2018-03-27T02:43:02.663Z,7.61
2018-03-27T02:44:02.945Z,7.76
2018-03-27T02:45:02.686Z,7.7
2018-03-27T02:46:02.689Z,7.69
2018-03-27T02:47:02.996Z,7.75
2018-03-27T02:48:03.011Z,7.76
2018-03-27T02:49:03.022Z,7.63
2018-03-27T02:50:03.038Z,7.73
2018-03-27T02:51:03.044Z,7.73
2018-03-27T02:52:03.076Z,7.69
2018-03-27T02:53:03.056Z,7.72
2018-03-27T02:54:02.814Z,7.67
2018-03-27T02:55:02.799Z,7.7
2018-03-27T02:56:02.837Z,7.67
2018-03-27T02:57:02.536Z,7.72
2018-03-27T02:58:03.133Z,7.7
2018-03-27T02:59:03.134Z,7.57
2018-03-27T03:00:02.856Z,7.7
2018-03-27T03:01:03.150Z,7.63
2018-03-27T03:02:02.888Z,7.72
2018-03-27T03:03:03.195Z,7.72
2018-03-27T03:04:03.221Z,7.66
2018-03-27T03:05:02.634Z,7.7
2018-03-27T03:06:03.217Z,7.67
2018-03-27T03:07:03.132Z,7.69
2018-03-27T03:08:03.626Z,7.69
2018-03-27T03:09:03.239Z,7.66
2018-03-27T03:10:02.806Z,7.72
2018-03-27T03:11:02.781Z,7.75
2018-03-27T03:12:03.412Z,7.57
2018-03-27T03:13:03.419Z,7.7
2018-03-27T03:14:03.120Z,7.69
2018-03-27T03:15:03.179Z,7.61
2018-03-27T03:16:03.208Z,7.61
2018-03-27T03:17:03.196Z,7.69
2018-03-27T03:18:03.775Z,7.72
2018-03-27T03:19:02.899Z,7.58
2018-03-27T03:20:03.239Z,7.63
2018-03-27T03:21:03.726Z,7.67
2018-03-27T03:22:03.626Z,7.69
2018-03-27T03:23:03.619Z,7.69
2018-03-27T03:24:03.055Z,7.66
2018-03-27T03:25:03.446Z,7.57
2018-03-27T03:26:03.598Z,7.67
2018-03-27T03:27:03.697Z,7.72
2018-03-27T03:28:03.452Z,7.73
2018-03-27T03:29:03.699Z,7.69
2018-03-27T03:30:03.396Z,7.69
2018-03-27T03:31:03.537Z,7.7
2018-03-27T03:32:03.711Z,7.73
2018-03-27T03:33:03.542Z,7.76
2018-03-27T03:34:03.394Z,7.69
2018-03-27T03:35:03.843Z,7.73
2018-03-27T03:36:03.568Z,7.73
2018-03-27T03:37:03.864Z,7.67
2018-03-27T03:38:04.024Z,7.7
2018-03-27T03:39:03.577Z,7.73
2018-03-27T03:40:03.846Z,7.76
2018-03-27T03:41:03.920Z,7.7
2018-03-27T03:42:03.698Z,7.73
2018-03-27T03:43:03.690Z,7.73
2018-03-27T03:44:03.571Z,7.72
2018-03-27T03:45:03.138Z,7.73
2018-03-27T03:46:03.572Z,7.69
2018-03-27T03:47:03.736Z,7.73
2018-03-27T03:48:03.454Z,7.76
2018-03-27T03:49:03.470Z,7.72
2018-03-27T03:50:03.754Z,7.73
2018-03-27T03:51:03.779Z,7.69
2018-03-27T03:52:03.774Z,7.75
2018-03-27T03:53:03.787Z,7.75
2018-03-27T03:54:03.525Z,7.69
2018-03-27T03:55:03.806Z,7.72
2018-03-27T03:56:03.548Z,7.67
2018-03-27T03:57:03.548Z,7.73
2018-03-27T03:58:03.300Z,7.69
2018-03-27T03:59:03.571Z,7.72
2018-03-27T04:00:03.587Z,7.7
2018-03-27T04:01:03.601Z,7.79
2018-03-27T04:02:03.335Z,7.69
2018-03-27T04:03:03.913Z,7.66
2018-03-27T04:04:03.656Z,7.72
2018-03-27T04:05:03.931Z,7.76
2018-03-27T04:06:03.656Z,7.72
2018-03-27T04:07:03.673Z,7.75
2018-03-27T04:08:03.725Z,7.72
2018-03-27T04:09:03.976Z,7.73
2018-03-27T04:10:03.721Z,7.72
2018-03-27T04:11:03.716Z,7.72
2018-03-27T04:12:03.730Z,7.7
2018-03-27T04:13:03.746Z,7.73
2018-03-27T04:14:03.473Z,7.72
2018-03-27T04:15:03.483Z,7.69
2018-03-27T04:16:03.603Z,7.72
2018-03-27T04:17:03.792Z,7.69
2018-03-27T04:18:03.811Z,7.63
2018-03-27T04:19:03.819Z,7.73
2018-03-27T04:20:03.836Z,7.73
2018-03-27T04:21:03.554Z,7.67
2018-03-27T04:22:03.851Z,7.69
2018-03-27T04:23:04.148Z,7.69
2018-03-27T04:24:03.874Z,7.66
2018-03-27T04:25:03.888Z,7.61
2018-03-27T04:26:03.931Z,7.66
2018-03-27T04:27:03.920Z,7.61
2018-03-27T04:28:03.929Z,7.61
2018-03-27T04:29:03.940Z,7.61
2018-03-27T04:30:03.668Z,7.67
2018-03-27T04:31:03.986Z,7.66
2018-03-27T04:32:03.985Z,7.56
2018-03-27T04:33:03.707Z,7.61
2018-03-27T04:34:04.288Z,7.61
2018-03-27T04:35:04.301Z,7.67
2018-03-27T04:36:03.742Z,7.61
2018-03-27T04:37:04.316Z,7.63
2018-03-27T04:38:04.051Z,7.58
2018-03-27T04:39:03.770Z,7.61
2018-03-27T04:40:04.075Z,7.61
2018-03-27T04:41:04.364Z,7.61
2018-03-27T04:42:04.376Z,7.66
2018-03-27T04:43:04.392Z,7.54
2018-03-27T04:44:04.114Z,7.47
2018-03-27T04:45:03.846Z,7.6
2018-03-27T04:46:04.144Z,7.5
2018-03-27T04:47:04.494Z,7.53
2018-03-27T04:48:04.162Z,7.5
2018-03-27T04:49:04.176Z,7.51
2018-03-27T04:50:04.190Z,7.45
2018-03-27T04:51:04.209Z,7.51
2018-03-27T04:52:03.928Z,7.5
2018-03-27T04:53:03.943Z,7.4
2018-03-27T04:54:04.309Z,7.53
2018-03-27T04:55:04.257Z,7.5
2018-03-27T04:56:04.260Z,7.51
2018-03-27T04:57:04.565Z,7.43
2018-03-27T04:58:04.285Z,7.45
2018-03-27T04:59:04.014Z,7.48
2018-03-27T05:00:04.024Z,7.39
2018-03-27T05:01:04.320Z,7.5
2018-03-27T05:02:04.358Z,7.42
2018-03-27T05:03:04.348Z,7.38
2018-03-27T05:04:04.661Z,7.39
2018-03-27T05:05:04.654Z,7.35
2018-03-27T05:06:04.102Z,7.45
2018-03-27T05:07:04.398Z,7.38
2018-03-27T05:08:04.763Z,7.47
2018-03-27T05:09:04.133Z,7.42
2018-03-27T05:10:04.715Z,7.38
2018-03-27T05:11:04.441Z,7.35
2018-03-27T05:12:04.599Z,7.32
2018-03-27T05:13:04.747Z,7.39
2018-03-27T05:14:04.475Z,7.36
2018-03-27T05:15:04.491Z,7.38
2018-03-27T05:16:04.216Z,7.32
2018-03-27T05:17:04.820Z,7.32
2018-03-27T05:18:04.834Z,7.36
2018-03-27T05:19:04.822Z,7.35
2018-03-27T05:20:04.548Z,7.35
2018-03-27T05:21:04.560Z,7.31
2018-03-27T05:22:04.290Z,7.38
2018-03-27T05:23:04.871Z,7.33
2018-03-27T05:24:04.882Z,7.32
2018-03-27T05:25:04.892Z,7.33
2018-03-27T05:26:04.921Z,7.38
2018-03-27T05:27:04.917Z,7.33
2018-03-27T05:28:04.940Z,7.33
2018-03-27T05:29:04.662Z,7.33
2018-03-27T05:30:04.952Z,7.36
2018-03-27T05:31:04.678Z,7.29
2018-03-27T05:32:04.979Z,7.36
2018-03-27T05:33:04.757Z,7.29
2018-03-27T05:34:04.998Z,7.28
2018-03-27T05:35:04.725Z,7.33
2018-03-27T05:36:05.036Z,7.32
2018-03-27T05:37:05.035Z,7.31
2018-03-27T05:38:04.547Z,7.4
2018-03-27T05:39:04.489Z,7.39
2018-03-27T05:40:04.512Z,7.45
2018-03-27T05:41:04.804Z,7.4
2018-03-27T05:42:04.815Z,7.48
2018-03-27T05:43:04.538Z,7.48
2018-03-27T05:44:04.837Z,7.56
2018-03-27T05:45:04.567Z,7.53
2018-03-27T05:46:04.860Z,7.53
2018-03-27T05:47:04.872Z,7.63
2018-03-27T05:48:04.883Z,7.57
2018-03-27T05:49:05.179Z,7.53
2018-03-27T05:50:05.190Z,7.69
2018-03-27T05:51:04.920Z,7.7
2018-03-27T05:52:04.930Z,7.72
2018-03-27T05:53:04.670Z,7.75
2018-03-27T05:54:05.260Z,7.72
2018-03-27T05:55:05.254Z,7.87
2018-03-27T05:56:05.070Z,7.77
2018-03-27T05:57:04.990Z,7.76
2018-03-27T05:58:05.001Z,7.76
2018-03-27T05:59:05.013Z,7.8
2018-03-27T06:00:05.036Z,7.75
2018-03-27T06:01:05.037Z,7.93
2018-03-27T06:02:05.071Z,7.87
2018-03-27T06:03:04.780Z,7.87
2018-03-27T06:04:05.080Z,7.88
2018-03-27T06:05:05.393Z,7.93
2018-03-27T06:06:04.819Z,7.93
2018-03-27T06:07:05.397Z,7.93
2018-03-27T06:08:04.865Z,7.93
2018-03-27T06:09:05.421Z,7.93
2018-03-27T06:10:04.873Z,8.05
2018-03-27T06:11:05.155Z,7.91
2018-03-27T06:12:05.454Z,7.98
2018-03-27T06:13:05.467Z,7.94
2018-03-27T06:14:05.480Z,7.95
2018-03-27T06:15:05.217Z,7.97
2018-03-27T06:16:05.237Z,7.94
2018-03-27T06:17:05.516Z,7.98
2018-03-27T06:18:05.269Z,8
2018-03-27T06:19:05.540Z,8.01
2018-03-27T06:20:04.997Z,7.97
2018-03-27T06:21:05.572Z,7.95
2018-03-27T06:22:05.574Z,7.93
2018-03-27T06:23:05.306Z,8.01
2018-03-27T06:24:05.615Z,7.98
2018-03-27T06:25:05.330Z,7.93
2018-03-27T06:26:05.354Z,8.01
2018-03-27T06:27:05.358Z,7.94
2018-03-27T06:28:05.651Z,7.97
2018-03-27T06:29:05.387Z,7.98
2018-03-27T06:30:05.411Z,8
2018-03-27T06:31:05.686Z,7.97
2018-03-27T06:32:05.735Z,7.98
2018-03-27T06:33:05.716Z,8.05
2018-03-27T06:34:05.503Z,8
2018-03-27T06:35:05.462Z,8.01
2018-03-27T06:36:05.761Z,8
2018-03-27T06:37:05.758Z,8.01
2018-03-27T06:38:05.781Z,8.01
2018-03-27T06:39:05.833Z,8.05
2018-03-27T06:40:05.809Z,8
2018-03-27T06:41:05.522Z,8.03
2018-03-27T06:42:05.965Z,7.98
2018-03-27T06:43:05.549Z,8.03
2018-03-27T06:44:05.562Z,7.98
2018-03-27T06:45:05.861Z,8.05
2018-03-27T06:46:05.880Z,8.08
2018-03-27T06:47:05.603Z,8.08
2018-03-27T06:48:05.344Z,8.1
2018-03-27T06:49:05.955Z,8.06
2018-03-27T06:50:05.354Z,8.08
2018-03-27T06:51:05.929Z,8.08
2018-03-27T06:52:05.945Z,8.1
2018-03-27T06:53:05.671Z,8.09
2018-03-27T06:54:05.777Z,8.13
2018-03-27T06:55:05.979Z,8.13
2018-03-27T06:56:05.721Z,8.13
2018-03-27T06:57:06.003Z,8.16
2018-03-27T06:58:05.732Z,8.24
2018-03-27T06:59:06.174Z,8.23
2018-03-27T07:00:05.762Z,8.24
2018-03-27T07:01:05.774Z,8.2
2018-03-27T07:02:05.809Z,8.23
2018-03-27T07:03:05.817Z,8.31
2018-03-27T07:04:06.186Z,8.31
2018-03-27T07:05:06.178Z,8.28
2018-03-27T07:06:06.192Z,8.38
2018-03-27T07:07:05.867Z,8.33
2018-03-27T07:08:05.871Z,8.31
2018-03-27T07:09:05.876Z,8.52
2018-03-27T07:10:06.181Z,8.49
2018-03-27T07:11:06.222Z,8.53
2018-03-27T07:12:06.209Z,8.51
2018-03-27T07:13:06.216Z,8.58
2018-03-27T07:14:05.953Z,8.66
2018-03-27T07:15:06.269Z,8.67
2018-03-27T07:16:05.684Z,8.7
2018-03-27T07:17:05.700Z,8.69
2018-03-27T07:18:06.000Z,8.78
2018-03-27T07:19:06.014Z,8.78
2018-03-27T07:20:06.385Z,8.79
2018-03-27T07:21:06.303Z,8.79
2018-03-27T07:22:06.032Z,8.76
2018-03-27T07:23:06.051Z,8.84
2018-03-27T07:24:05.803Z,8.84
2018-03-27T07:25:06.090Z,8.88
2018-03-27T07:26:06.365Z,8.88
2018-03-27T07:27:06.151Z,8.92
2018-03-27T07:28:05.823Z,8.99
2018-03-27T07:29:06.174Z,8.97
2018-03-27T07:30:06.133Z,9
2018-03-27T07:31:06.147Z,9.06
2018-03-27T07:32:05.873Z,9.02
2018-03-27T07:33:06.168Z,9.08
2018-03-27T07:34:06.470Z,9.06
2018-03-27T07:35:06.194Z,9.06
2018-03-27T07:36:06.216Z,9.11
2018-03-27T07:37:06.218Z,9.11
2018-03-27T07:38:06.237Z,9.08
2018-03-27T07:39:06.260Z,9.18
2018-03-27T07:40:06.540Z,9.14
2018-03-27T07:41:06.559Z,9.16
2018-03-27T07:42:06.288Z,9.19
2018-03-27T07:43:06.306Z,9.23
2018-03-27T07:44:06.645Z,9.29
2018-03-27T07:45:06.324Z,9.31
2018-03-27T07:46:06.621Z,9.31
2018-03-27T07:47:06.630Z,9.39
2018-03-27T07:48:06.645Z,9.41
2018-03-27T07:49:06.419Z,9.44
2018-03-27T07:50:06.385Z,9.48
2018-03-27T07:51:06.404Z,9.4
2018-03-27T07:52:06.412Z,9.5
2018-03-27T07:53:06.422Z,9.54
2018-03-27T07:54:06.151Z,9.59
2018-03-27T07:55:06.738Z,9.58
2018-03-27T07:56:06.465Z,9.68
2018-03-27T07:57:06.754Z,9.72
2018-03-27T07:58:06.204Z,9.66
2018-03-27T07:59:06.499Z,9.66
2018-03-27T08:00:06.509Z,9.68
2018-03-27T08:01:06.819Z,9.66
2018-03-27T08:02:06.544Z,9.82
2018-03-27T08:03:06.555Z,9.74
2018-03-27T08:04:06.848Z,9.82
2018-03-27T08:05:06.860Z,9.79
2018-03-27T08:06:06.880Z,9.89
2018-03-27T08:07:06.891Z,9.89
2018-03-27T08:08:06.904Z,9.87
2018-03-27T08:09:06.628Z,9.97
2018-03-27T08:10:06.935Z,10.02
2018-03-27T08:11:06.856Z,10.1
2018-03-27T08:12:06.955Z,10.23
2018-03-27T08:13:06.686Z,10.09
2018-03-27T08:14:06.976Z,10.13
2018-03-27T08:15:06.709Z,10.26
2018-03-27T08:16:06.724Z,10.35
2018-03-27T08:17:07.022Z,10.26
2018-03-27T08:18:06.749Z,10.34
2018-03-27T08:19:07.040Z,10.37
2018-03-27T08:20:06.776Z,10.31
2018-03-27T08:21:06.801Z,10.35
2018-03-27T08:22:06.803Z,10.4
2018-03-27T08:23:06.827Z,10.41
2018-03-27T08:24:07.593Z,10.46
2018-03-27T08:25:06.836Z,10.46
2018-03-27T08:26:06.854Z,10.37
2018-03-27T08:27:06.875Z,10.4
2018-03-27T08:28:06.880Z,10.44
2018-03-27T08:29:07.180Z,10.46
2018-03-27T08:30:06.905Z,10.48
2018-03-27T08:31:06.637Z,10.53
2018-03-27T08:32:06.649Z,10.57
2018-03-27T08:33:06.945Z,10.63
2018-03-27T08:34:06.964Z,10.69
2018-03-27T08:35:06.688Z,10.64
2018-03-27T08:36:07.276Z,10.68
2018-03-27T08:37:06.998Z,10.76
2018-03-27T08:38:07.020Z,10.74
2018-03-27T08:39:07.335Z,10.72
2018-03-27T08:40:07.158Z,10.82
2018-03-27T08:41:07.053Z,10.86
2018-03-27T08:42:07.080Z,10.86
2018-03-27T08:43:07.080Z,10.84
2018-03-27T08:44:07.099Z,10.92
2018-03-27T08:45:07.397Z,10.92
2018-03-27T08:46:07.140Z,10.96
2018-03-27T08:47:07.132Z,10.96
2018-03-27T08:48:06.864Z,10.94
2018-03-27T08:49:07.167Z,10.99
2018-03-27T08:50:06.945Z,11
2018-03-27T08:51:07.188Z,10.99
2018-03-27T08:52:07.223Z,11.08
2018-03-27T08:53:07.215Z,11.11
2018-03-27T08:54:07.295Z,11.1
2018-03-27T08:55:06.961Z,11.19
2018-03-27T08:56:07.396Z,11.14
2018-03-27T08:57:07.554Z,11.23
2018-03-27T08:58:07.288Z,11.17
2018-03-27T08:59:07.302Z,11.19
2018-03-27T09:00:07.650Z,11.22
2018-03-27T09:01:07.609Z,11.25
2018-03-27T09:02:07.343Z,11.23
2018-03-27T09:03:07.361Z,11.25
2018-03-27T09:04:07.652Z,11.26
2018-03-27T09:05:07.394Z,11.23
2018-03-27T09:06:07.395Z,11.26
2018-03-27T09:07:07.408Z,11.26
2018-03-27T09:08:07.426Z,11.36
2018-03-27T09:09:07.155Z,11.41
2018-03-27T09:10:07.169Z,11.44
2018-03-27T09:11:07.186Z,11.45
2018-03-27T09:12:07.198Z,11.5
2018-03-27T09:13:07.781Z,11.51
2018-03-27T09:14:07.508Z,11.54
2018-03-27T09:15:07.832Z,11.52
2018-03-27T09:16:07.537Z,11.52
2018-03-27T09:17:07.836Z,11.57
2018-03-27T09:18:07.849Z,11.62
2018-03-27T09:19:07.303Z,11.63
2018-03-27T09:20:07.650Z,11.66
2018-03-27T09:21:07.887Z,11.81
2018-03-27T09:22:07.623Z,11.75
2018-03-27T09:23:07.918Z,11.81
2018-03-27T09:24:07.646Z,11.86
2018-03-27T09:25:07.715Z,11.97
2018-03-27T09:26:07.677Z,12.03
2018-03-27T09:27:07.972Z,12.09
2018-03-27T09:28:07.715Z,12.2
2018-03-27T09:29:07.437Z,12.25
2018-03-27T09:30:08.021Z,12.28
2018-03-27T09:31:07.468Z,12.4
2018-03-27T09:32:07.768Z,12.46
2018-03-27T09:33:08.064Z,12.46
2018-03-27T09:34:07.794Z,12.5
2018-03-27T09:35:07.809Z,12.67
2018-03-27T09:36:07.536Z,12.7
2018-03-27T09:37:08.120Z,12.79
2018-03-27T09:38:08.369Z,12.79
2018-03-27T09:39:07.863Z,12.94
2018-03-27T09:40:07.600Z,13.05
2018-03-27T09:41:08.181Z,13.08
2018-03-27T09:42:07.920Z,13.15
2018-03-27T09:43:07.640Z,13.22
2018-03-27T09:44:07.657Z,13.27
2018-03-27T09:45:07.960Z,13.37
2018-03-27T09:46:08.256Z,13.31
2018-03-27T09:47:07.987Z,13.44
2018-03-27T09:48:07.999Z,13.52
2018-03-27T09:49:08.295Z,13.6
2018-03-27T09:50:08.025Z,13.67
2018-03-27T09:51:08.048Z,13.83
2018-03-27T09:52:07.778Z,13.78
2018-03-27T09:53:07.791Z,13.78
2018-03-27T09:54:08.088Z,13.95
2018-03-27T09:55:08.104Z,13.99
2018-03-27T09:56:08.117Z,14.1
2018-03-27T09:57:08.136Z,14.14
2018-03-27T09:58:08.154Z,14.05
2018-03-27T09:59:08.164Z,14.2
2018-03-27T10:00:08.182Z,14.2
2018-03-27T10:01:08.196Z,14.23
2018-03-27T10:02:08.494Z,14.28
2018-03-27T10:03:08.229Z,14.3
2018-03-27T10:04:08.533Z,14.47
2018-03-27T10:05:07.977Z,14.51
2018-03-27T10:06:07.988Z,14.51
2018-03-27T10:07:08.293Z,14.63
2018-03-27T10:08:08.307Z,14.63
2018-03-27T10:09:08.037Z,14.72
2018-03-27T10:10:08.628Z,14.79
2018-03-27T10:11:08.373Z,14.86
2018-03-27T10:12:08.367Z,14.99
2018-03-27T10:13:08.382Z,14.96
2018-03-27T10:14:08.397Z,15.09
2018-03-27T10:15:08.430Z,15.14
2018-03-27T10:16:08.935Z,15.18
2018-03-27T10:17:08.448Z,15.31
2018-03-27T10:18:08.750Z,15.25
2018-03-27T10:19:08.480Z,15.27
2018-03-27T10:20:08.780Z,15.35
2018-03-27T10:21:08.518Z,15.36
2018-03-27T10:22:08.598Z,15.39
2018-03-27T10:23:08.553Z,15.44
2018-03-27T10:24:08.854Z,15.46
2018-03-27T10:25:08.293Z,15.54
2018-03-27T10:26:08.310Z,15.52
2018-03-27T10:27:08.341Z,15.52
2018-03-27T10:28:08.346Z,15.52
2018-03-27T10:29:08.927Z,15.54
2018-03-27T10:30:08.667Z,15.62
2018-03-27T10:31:08.393Z,15.54
2018-03-27T10:32:08.411Z,15.58
2018-03-27T10:33:08.737Z,15.59
2018-03-27T10:34:08.728Z,15.54
2018-03-27T10:35:09.034Z,15.55
2018-03-27T10:36:08.765Z,15.49
2018-03-27T10:37:08.510Z,15.54
2018-03-27T10:38:08.803Z,15.47
2018-03-27T10:39:08.811Z,15.46
2018-03-27T10:40:08.834Z,15.42
2018-03-27T10:41:08.848Z,15.42
2018-03-27T10:42:09.139Z,15.39
2018-03-27T10:43:08.880Z,15.43
2018-03-27T10:44:09.179Z,15.46
2018-03-27T10:45:08.923Z,15.36
2018-03-27T10:46:08.645Z,15.37
2018-03-27T10:47:08.665Z,15.4
2018-03-27T10:48:08.680Z,15.4
2018-03-27T10:49:09.016Z,15.35
2018-03-27T10:50:09.311Z,15.4
2018-03-27T10:51:08.733Z,15.44
2018-03-27T10:52:09.031Z,15.49
2018-03-27T10:53:09.333Z,15.54
2018-03-27T10:54:09.065Z,15.61
2018-03-27T10:55:09.105Z,15.67
2018-03-27T10:56:08.817Z,15.72
2018-03-27T10:57:09.403Z,15.73
2018-03-27T10:58:09.137Z,15.83
2018-03-27T10:59:09.153Z,15.8
2018-03-27T11:00:09.175Z,15.83
2018-03-27T11:01:09.186Z,15.97
2018-03-27T11:02:09.491Z,15.97
2018-03-27T11:03:09.222Z,15.91
2018-03-27T11:04:09.241Z,15.94
2018-03-27T11:05:09.542Z,15.92
2018-03-27T11:06:09.276Z,15.92
2018-03-27T11:07:09.290Z,15.91
2018-03-27T11:08:09.652Z,15.91
2018-03-27T11:09:09.608Z,15.94
2018-03-27T11:10:09.687Z,15.97
2018-03-27T11:11:09.379Z,15.9
2018-03-27T11:12:09.667Z,15.9
2018-03-27T11:13:09.685Z,15.88
2018-03-27T11:14:09.126Z,15.92
2018-03-27T11:15:09.430Z,15.91
2018-03-27T11:16:09.738Z,15.9
2018-03-27T11:17:09.464Z,15.9
2018-03-27T11:18:09.780Z,15.92
2018-03-27T11:19:09.505Z,15.75
2018-03-27T11:20:09.517Z,15.84
2018-03-27T11:21:09.826Z,15.82
2018-03-27T11:22:09.839Z,15.79
2018-03-27T11:23:09.579Z,15.64
2018-03-27T11:24:09.883Z,15.64
2018-03-27T11:25:09.605Z,15.65
2018-03-27T11:26:09.338Z,15.67
2018-03-27T11:27:09.690Z,15.61
2018-03-27T11:28:09.944Z,15.67
2018-03-27T11:29:09.727Z,15.58
2018-03-27T11:30:09.700Z,15.58
2018-03-27T11:31:09.711Z,15.57
2018-03-27T11:32:09.734Z,15.57
2018-03-27T11:33:10.046Z,15.49
2018-03-27T11:34:09.479Z,15.52
2018-03-27T11:35:10.072Z,15.52
2018-03-27T11:36:10.086Z,15.47
2018-03-27T11:37:10.106Z,15.49
2018-03-27T11:38:10.125Z,15.58
2018-03-27T11:39:10.135Z,15.52
2018-03-27T11:40:09.870Z,15.64
2018-03-27T11:41:10.171Z,15.59
2018-03-27T11:42:10.204Z,15.64
2018-03-27T11:43:09.928Z,15.61
2018-03-27T11:44:09.940Z,15.64
2018-03-27T11:45:10.250Z,15.62
2018-03-27T11:46:09.978Z,15.8
2018-03-27T11:47:10.285Z,15.83
2018-03-27T11:48:10.011Z,15.79
2018-03-27T11:49:10.309Z,15.91
2018-03-27T11:50:10.338Z,15.86
2018-03-27T11:51:10.347Z,16.01
2018-03-27T11:52:10.370Z,16.02
2018-03-27T11:53:10.107Z,16.04
2018-03-27T11:54:10.426Z,16.2
2018-03-27T11:55:10.135Z,16.13
2018-03-27T11:56:10.188Z,16.21
2018-03-27T11:57:10.173Z,16.21
2018-03-27T11:58:10.469Z,16.42
2018-03-27T11:59:10.208Z,16.38
2018-03-27T12:00:10.512Z,16.49
2018-03-27T12:01:10.245Z,16.6
2018-03-27T12:02:10.558Z,16.56
2018-03-27T12:03:10.563Z,16.61
2018-03-27T12:04:10.302Z,16.65
2018-03-27T12:05:10.600Z,16.75
2018-03-27T12:06:10.462Z,16.9
2018-03-27T12:07:10.355Z,16.83
2018-03-27T12:08:10.095Z,16.94
2018-03-27T12:09:10.680Z,17.04
2018-03-27T12:10:10.694Z,16.96
2018-03-27T12:11:10.423Z,17.02
2018-03-27T12:12:10.159Z,17.19
2018-03-27T12:13:10.463Z,17.2
2018-03-27T12:14:10.199Z,17.2
2018-03-27T12:15:10.784Z,17.34
2018-03-27T12:16:10.515Z,17.39
2018-03-27T12:17:10.254Z,17.48
2018-03-27T12:18:10.557Z,17.57
2018-03-27T12:19:10.576Z,17.48
2018-03-27T12:20:10.306Z,17.56
2018-03-27T12:21:10.889Z,17.68
2018-03-27T12:22:10.636Z,17.67
2018-03-27T12:23:10.937Z,17.72
2018-03-27T12:24:10.666Z,17.78
2018-03-27T12:25:10.687Z,17.83
2018-03-27T12:26:10.420Z,17.89
2018-03-27T12:27:11.002Z,17.92
2018-03-27T12:28:11.022Z,17.86
2018-03-27T12:29:10.767Z,17.87
2018-03-27T12:30:11.062Z,17.87
2018-03-27T12:31:10.797Z,17.95
2018-03-27T12:32:11.104Z,18.01
2018-03-27T12:33:11.120Z,18.04
2018-03-27T12:34:10.576Z,18.03
2018-03-27T12:35:10.872Z,17.98
2018-03-27T12:36:10.948Z,17.97
2018-03-27T12:37:10.917Z,18.01
2018-03-27T12:38:10.647Z,18.08
2018-03-27T12:39:11.230Z,18.03
2018-03-27T12:40:10.965Z,18.07
2018-03-27T12:41:11.041Z,18.15
2018-03-27T12:42:11.356Z,18.11
2018-03-27T12:43:11.022Z,18.19
2018-03-27T12:44:11.049Z,18.19
2018-03-27T12:45:11.353Z,18.23
2018-03-27T12:46:11.364Z,18.23
2018-03-27T12:47:11.381Z,18.23
2018-03-27T12:48:11.404Z,18.34
2018-03-27T12:49:11.438Z,18.31
2018-03-27T12:50:11.157Z,18.29
2018-03-27T12:51:11.460Z,18.34
2018-03-27T12:52:11.486Z,18.38
2018-03-27T12:53:11.510Z,18.38
2018-03-27T12:54:11.518Z,18.38
2018-03-27T12:55:11.257Z,18.37
2018-03-27T12:56:11.294Z,18.52
2018-03-27T12:57:11.289Z,18.5
2018-03-27T12:58:11.329Z,18.43
2018-03-27T12:59:11.407Z,18.47
2018-03-27T13:00:11.642Z,18.5
2018-03-27T13:01:11.655Z,18.55
2018-03-27T13:02:11.395Z,18.52
2018-03-27T13:03:11.125Z,18.52
2018-03-27T13:04:11.709Z,18.45
2018-03-27T13:05:11.734Z,18.53
2018-03-27T13:06:11.516Z,18.55
2018-03-27T13:07:11.484Z,18.6
2018-03-27T13:08:11.791Z,18.5
2018-03-27T13:09:11.851Z,18.55
2018-03-27T13:10:11.545Z,18.58
2018-03-27T13:11:12.574Z,18.62